Time;durP1;ratioP1;P1;durP2;ratioP2;P2;SDS_P1;SDS_P2;PMS_P1;PMS_P2;Temp;Humidity;BMP_temperature;BMP_pressure;BME280_temperature;BME280_humidity;BME280_pressure;Samples;Min_cycle;Max_cycle;Signal;HPM_P1;HPM_P2
2022/03/21 00:00:20;;;;;;;40.55;21.27;;;7.30;99.90;;;;;;5075771;28;20055;-71
2022/03/21 00:02:46;;;;;;;40.65;22.10;;;7.30;99.90;;;;;;5076644;28;20051;-71
2022/03/21 00:05:12;;;;;;;42.33;21.02;;;7.30;99.90;;;;;;5054397;28;20040;-71
2022/03/21 00:07:38;;;;;;;41.35;21.25;;;7.20;99.90;;;;;;5093009;28;20048;-71
2022/03/21 00:10:05;;;;;;;42.25;22.02;;;7.30;99.90;;;;;;5045507;28;20052;-72
2022/03/21 00:12:31;;;;;;;44.30;22.52;;;7.30;99.90;;;;;;5048294;28;20351;-71
2022/03/21 00:14:56;;;;;;;41.22;22.23;;;7.30;99.90;;;;;;5069298;28;20063;-71
2022/03/21 00:17:22;;;;;;;41.58;22.10;;;7.30;99.90;;;;;;5038468;28;20044;-71
2022/03/21 00:19:48;;;;;;;40.08;21.75;;;7.30;99.90;;;;;;5067797;28;20055;-71
2022/03/21 00:22:14;;;;;;;44.88;22.20;;;8.00;99.90;;;;;;5038977;28;20051;-71
2022/03/21 00:24:41;;;;;;;40.50;21.05;;;7.20;99.90;;;;;;5043763;28;20036;-71
2022/03/21 00:27:12;;;;;;;41.53;21.15;;;7.70;99.90;;;;;;5061030;28;20043;-71
2022/03/21 00:29:38;;;;;;;39.78;21.35;;;7.30;99.90;;;;;;5043268;28;20051;-71
2022/03/21 00:32:05;;;;;;;43.92;23.33;;;7.30;99.90;;;;;;5090651;28;20036;-71
2022/03/21 00:34:31;;;;;;;44.38;24.27;;;7.30;99.90;;;;;;5063349;28;20108;-71
2022/03/21 00:36:58;;;;;;;44.50;24.40;;;7.20;99.90;;;;;;5072205;28;20054;-71
2022/03/21 00:39:24;;;;;;;50.42;25.35;;;7.20;99.90;;;;;;5039368;28;20472;-71
2022/03/21 00:41:51;;;;;;;49.95;23.92;;;7.20;99.90;;;;;;5052452;28;20139;-71
2022/03/21 00:44:17;;;;;;;48.13;26.60;;;7.20;99.90;;;;;;5089506;28;20376;-71
2022/03/21 00:46:43;;;;;;;52.17;26.70;;;7.20;99.90;;;;;;5078825;28;20033;-71
2022/03/21 00:49:12;;;;;;;52.78;27.13;;;7.20;99.90;;;;;;5060152;28;20090;-71
2022/03/21 00:51:38;;;;;;;54.30;27.75;;;7.20;99.90;;;;;;5054580;28;20550;-71
2022/03/21 00:54:04;;;;;;;50.55;27.27;;;7.20;99.90;;;;;;5047955;28;20041;-71
2022/03/21 00:56:30;;;;;;;49.13;25.95;;;7.10;99.90;;;;;;5067410;28;20102;-71
2022/03/21 00:58:56;;;;;;;51.08;26.77;;;7.20;99.90;;;;;;5074746;28;20097;-71
2022/03/21 01:01:23;;;;;;;53.72;27.13;;;7.20;99.90;;;;;;5057728;28;20055;-71
2022/03/21 01:03:49;;;;;;;49.50;27.23;;;7.20;99.90;;;;;;5060797;28;20501;-71
2022/03/21 01:06:15;;;;;;;55.05;28.70;;;7.20;99.90;;;;;;5057629;28;20044;-72
2022/03/21 01:08:41;;;;;;;51.15;27.58;;;7.20;99.90;;;;;;5093093;28;20109;-71
2022/03/21 01:11:07;;;;;;;51.05;27.25;;;7.20;99.90;;;;;;5069946;28;20053;-71
2022/03/21 01:13:32;;;;;;;53.50;26.92;;;7.20;99.90;;;;;;5079030;28;20035;-71
2022/03/21 01:15:58;;;;;;;50.10;26.88;;;7.20;99.90;;;;;;5073638;28;20058;-71
2022/03/21 01:18:25;;;;;;;50.72;26.17;;;7.20;99.90;;;;;;5062716;28;20108;-71
2022/03/21 01:20:51;;;;;;;49.78;26.73;;;7.20;99.90;;;;;;5071821;28;20472;-71
2022/03/21 01:23:17;;;;;;;51.42;26.60;;;7.20;99.90;;;;;;5066886;28;20065;-71
2022/03/21 01:25:43;;;;;;;48.17;25.17;;;7.20;99.90;;;;;;5073795;28;20047;-71
2022/03/21 01:28:09;;;;;;;49.80;26.33;;;7.20;99.90;;;;;;5046526;28;20063;-71
2022/03/21 01:30:36;;;;;;;49.60;26.30;;;7.20;99.90;;;;;;5064031;28;20041;-71
2022/03/21 01:33:02;;;;;;;51.28;26.25;;;7.20;99.90;;;;;;5069062;28;20040;-70
2022/03/21 01:35:28;;;;;;;47.50;25.55;;;7.20;99.90;;;;;;5051903;28;20077;-71
2022/03/21 01:37:54;;;;;;;47.92;26.15;;;7.20;99.90;;;;;;5053695;28;20410;-71
2022/03/21 01:40:20;;;;;;;53.40;26.33;;;7.20;99.90;;;;;;5057992;28;20048;-71
2022/03/21 01:42:47;;;;;;;50.58;26.48;;;7.20;99.90;;;;;;5077805;28;20047;-71
2022/03/21 01:45:13;;;;;;;45.58;23.65;;;7.20;99.90;;;;;;5065931;28;20380;-71
2022/03/21 01:47:41;;;;;;;46.28;23.83;;;7.20;99.90;;;;;;5063518;28;20052;-70
2022/03/21 01:50:08;;;;;;;48.60;25.30;;;7.20;99.90;;;;;;5091485;28;20469;-72
2022/03/21 01:52:37;;;;;;;50.42;26.08;;;7.20;99.90;;;;;;5095384;28;20115;-71
2022/03/21 01:57:51;;;;;;;52.22;26.88;;;7.10;99.90;;;;;;5081968;28;20048;-71
2022/03/21 02:00:17;;;;;;;53.05;27.85;;;7.20;99.90;;;;;;5053907;28;20388;-71
2022/03/21 02:02:43;;;;;;;52.63;27.15;;;7.20;99.90;;;;;;5070167;28;20040;-71
2022/03/21 02:05:10;;;;;;;47.80;25.92;;;7.20;99.90;;;;;;5055032;28;20059;-70
2022/03/21 02:07:36;;;;;;;50.00;26.80;;;7.20;99.90;;;;;;5086031;28;20121;-71
2022/03/21 02:10:03;;;;;;;55.85;27.65;;;7.20;99.90;;;;;;5071284;28;20127;-70
2022/03/21 02:12:30;;;;;;;47.05;25.83;;;7.20;99.90;;;;;;5069520;28;20051;-71
2022/03/21 02:14:56;;;;;;;50.50;25.42;;;7.20;99.90;;;;;;5050605;28;20357;-70
2022/03/21 02:17:24;;;;;;;46.45;24.48;;;7.10;99.90;;;;;;5035491;28;20044;-70
2022/03/21 02:19:51;;;;;;;47.20;24.80;;;7.10;99.90;;;;;;5025137;28;20373;-71
2022/03/21 02:22:44;;;;;;;51.25;25.65;;;7.20;99.90;;;;;;5059482;28;20028;-71
2022/03/21 02:25:32;;;;;;;47.15;25.27;;;7.10;99.90;;;;;;5054831;28;20048;-71
2022/03/21 02:28:01;;;;;;;45.10;23.80;;;7.10;99.90;;;;;;5078803;28;20036;-71
2022/03/21 02:30:28;;;;;;;49.22;25.50;;;7.00;99.90;;;;;;5064408;28;20047;-71
2022/03/21 02:32:55;;;;;;;47.75;24.92;;;7.10;99.90;;;;;;5055813;28;20048;-71
2022/03/21 02:35:22;;;;;;;54.47;26.60;;;7.10;99.90;;;;;;5069712;28;20089;-71
2022/03/21 02:37:49;;;;;;;53.20;26.17;;;7.10;99.90;;;;;;5052156;28;20059;-72
2022/03/21 02:40:16;;;;;;;55.83;27.45;;;7.00;99.90;;;;;;5071218;28;20499;-70
2022/03/21 02:42:43;;;;;;;48.00;25.38;;;7.00;99.90;;;;;;5082228;28;20135;-71
2022/03/21 02:45:09;;;;;;;50.45;26.15;;;7.00;99.90;;;;;;5089219;28;20435;-71
2022/03/21 02:47:35;;;;;;;51.58;27.15;;;6.90;99.90;;;;;;5044987;28;20036;-71
2022/03/21 02:50:03;;;;;;;53.75;27.30;;;6.90;99.90;;;;;;5095241;28;20109;-72
2022/03/21 02:52:30;;;;;;;52.85;26.13;;;6.90;99.90;;;;;;5059644;28;20773;-70
2022/03/21 02:54:56;;;;;;;53.85;26.67;;;6.80;99.90;;;;;;5059294;28;20436;-70
2022/03/21 02:57:22;;;;;;;48.95;25.15;;;6.80;99.90;;;;;;5075994;28;20036;-70
2022/03/21 02:59:48;;;;;;;49.22;25.50;;;6.70;99.90;;;;;;5044370;28;20461;-70
2022/03/21 03:02:14;;;;;;;48.85;25.48;;;6.70;99.90;;;;;;5071841;28;20524;-70
2022/03/21 03:04:40;;;;;;;51.08;23.50;;;6.70;99.90;;;;;;5047267;28;20058;-71
2022/03/21 03:07:06;;;;;;;49.15;24.42;;;6.70;99.90;;;;;;5098906;28;20080;-70
2022/03/21 03:09:33;;;;;;;44.95;23.23;;;6.60;99.90;;;;;;5074643;28;20080;-70
2022/03/21 03:12:00;;;;;;;43.97;24.08;;;6.50;99.90;;;;;;5071169;28;20098;-70
2022/03/21 03:14:26;;;;;;;44.22;21.48;;;6.50;99.90;;;;;;5079788;28;20040;-70
2022/03/21 03:16:52;;;;;;;44.60;22.77;;;6.40;99.90;;;;;;5045508;28;20105;-70
2022/03/21 03:19:18;;;;;;;45.65;23.25;;;6.30;99.90;;;;;;5045915;28;20044;-70
2022/03/21 03:21:46;;;;;;;46.42;23.08;;;6.20;99.90;;;;;;5069501;28;20047;-71
2022/03/21 03:24:12;;;;;;;41.65;23.27;;;6.10;99.90;;;;;;5060714;28;20492;-70
2022/03/21 03:26:39;;;;;;;44.38;22.83;;;6.10;99.90;;;;;;5092095;28;20078;-70
2022/03/21 03:29:05;;;;;;;47.97;23.60;;;6.10;99.90;;;;;;5085695;28;20042;-70
2022/03/21 03:31:31;;;;;;;46.05;23.80;;;5.90;99.90;;;;;;5076456;28;20049;-70
2022/03/21 03:33:58;;;;;;;47.67;25.05;;;6.10;99.90;;;;;;5048539;28;20044;-70
2022/03/21 03:36:24;;;;;;;48.53;24.10;;;5.80;99.90;;;;;;5075581;28;20040;-69
2022/03/21 03:38:51;;;;;;;46.15;25.10;;;5.80;99.90;;;;;;5060831;28;20505;-70
2022/03/21 03:41:19;;;;;;;54.30;26.13;;;5.80;99.90;;;;;;5073950;28;20090;-70
2022/03/21 03:43:47;;;;;;;46.92;24.38;;;5.70;99.90;;;;;;5060155;28;20089;-70
2022/03/21 03:46:16;;;;;;;51.90;24.27;;;5.60;99.90;;;;;;5058660;28;20036;-70
2022/03/21 03:48:43;;;;;;;49.75;24.10;;;5.70;99.90;;;;;;5079377;28;20052;-70
2022/03/21 03:51:11;;;;;;;48.80;23.88;;;5.60;99.90;;;;;;5054210;28;20048;-70
2022/03/21 03:53:37;;;;;;;48.05;23.55;;;5.50;99.90;;;;;;5086630;28;20414;-70
2022/03/21 03:56:04;;;;;;;54.40;24.65;;;5.40;99.90;;;;;;5076595;28;20043;-70
2022/03/21 03:58:30;;;;;;;50.88;24.55;;;5.50;99.90;;;;;;5079994;28;20047;-70
2022/03/21 04:00:56;;;;;;;52.63;25.25;;;5.40;99.90;;;;;;5079707;28;20045;-70
2022/03/21 04:06:07;;;;;;;46.55;23.40;;;5.30;99.90;;;;;;5075996;28;20044;-70
2022/03/21 04:08:32;;;;;;;45.65;22.23;;;5.20;99.90;;;;;;5092608;28;20060;-70
2022/03/21 04:10:58;;;;;;;49.85;23.83;;;5.10;99.90;;;;;;5059684;28;20071;-70
2022/03/21 04:13:24;;;;;;;50.85;23.77;;;5.00;99.90;;;;;;5071634;28;20052;-69
2022/03/21 04:15:51;;;;;;;51.30;24.02;;;4.90;99.90;;;;;;5055789;28;20396;-70
2022/03/21 04:18:17;;;;;;;49.08;23.48;;;4.90;99.90;;;;;;5039429;28;20126;-70
2022/03/21 04:20:42;;;;;;;53.28;25.38;;;4.80;99.90;;;;;;5053036;28;20050;-70
2022/03/21 04:23:09;;;;;;;57.25;27.17;;;4.80;99.90;;;;;;5058482;28;20538;-70
2022/03/21 04:25:35;;;;;;;57.97;26.20;;;4.70;99.90;;;;;;5045088;28;20052;-71
2022/03/21 04:28:11;;;;;;;55.28;25.55;;;4.70;99.90;;;;;;5065646;28;20040;-70
2022/03/21 04:30:38;;;;;;;56.22;25.75;;;4.70;99.90;;;;;;5075431;28;20075;-71
2022/03/21 04:33:09;;;;;;;56.50;25.88;;;4.60;99.90;;;;;;5075342;28;20127;-70
2022/03/21 04:35:36;;;;;;;57.97;24.65;;;4.60;99.90;;;;;;5046230;28;20071;-70
2022/03/21 04:38:02;;;;;;;54.15;24.58;;;4.50;99.90;;;;;;5066685;28;20054;-69
2022/03/21 04:40:28;;;;;;;59.97;26.27;;;4.50;99.90;;;;;;5057586;28;20484;-70
2022/03/21 04:42:54;;;;;;;57.05;26.25;;;4.50;99.90;;;;;;5064565;28;20036;-70
2022/03/21 04:45:20;;;;;;;52.38;25.02;;;4.40;99.90;;;;;;5061293;28;20449;-70
2022/03/21 04:47:46;;;;;;;57.53;25.13;;;4.40;99.90;;;;;;5059032;28;20048;-70
2022/03/21 04:50:13;;;;;;;45.30;22.52;;;4.30;99.90;;;;;;5112269;28;20120;-70
2022/03/21 04:52:39;;;;;;;55.25;25.25;;;4.20;99.90;;;;;;5050621;28;20106;-70
2022/03/21 04:55:07;;;;;;;54.03;24.25;;;4.00;99.90;;;;;;5075056;28;20089;-70
2022/03/21 04:57:35;;;;;;;54.45;25.70;;;3.90;99.90;;;;;;5055716;28;20047;-70
2022/03/21 05:00:03;;;;;;;62.05;26.50;;;3.80;99.90;;;;;;5092812;28;20064;-70
2022/03/21 05:02:28;;;;;;;50.67;23.13;;;4.40;99.90;;;;;;5068370;28;20043;-71
2022/03/21 05:04:54;;;;;;;53.47;23.50;;;4.30;99.90;;;;;;5058957;28;20048;-70
2022/03/21 05:07:20;;;;;;;55.30;24.60;;;3.50;99.90;;;;;;5067058;28;20044;-70
2022/03/21 05:09:48;;;;;;;59.90;25.08;;;3.40;99.90;;;;;;5037787;28;20126;-71
2022/03/21 05:12:14;;;;;;;57.85;25.85;;;3.40;99.90;;;;;;5072819;28;20373;-71
2022/03/21 05:14:40;;;;;;;51.35;23.15;;;3.40;99.90;;;;;;5036854;28;20039;-70
2022/03/21 05:17:09;;;;;;;46.13;21.77;;;3.30;99.90;;;;;;5073317;28;20126;-70
2022/03/21 05:19:36;;;;;;;59.67;24.92;;;3.50;99.90;;;;;;5074270;28;20504;-71
2022/03/21 05:22:06;;;;;;;59.30;24.83;;;3.20;99.90;;;;;;5055272;28;20151;-70
2022/03/21 05:35:52;;;;;;;65.55;26.58;;;3.00;99.90;;;;;;5060380;28;20048;-70
2022/03/21 05:35:54;;;;;;;49.35;23.05;;;2.90;99.90;;;;;;5072540;28;20480;-70
2022/03/21 05:38:26;;;;;;;61.85;24.02;;;2.90;99.90;;;;;;5083266;28;20044;-70
2022/03/21 05:40:56;;;;;;;58.75;24.85;;;2.90;99.90;;;;;;5074266;28;20070;-71
2022/03/21 05:43:23;;;;;;;55.08;23.83;;;2.80;99.90;;;;;;5063881;28;20056;-70
2022/03/21 05:45:49;;;;;;;56.80;24.60;;;2.80;99.90;;;;;;5034724;28;20373;-70
2022/03/21 05:51:00;;;;;;;62.33;25.88;;;2.90;99.90;;;;;;5074441;28;20105;-70
2022/03/21 05:53:26;;;;;;;54.30;23.90;;;2.80;99.90;;;;;;5092536;28;20050;-70
2022/03/21 05:55:52;;;;;;;61.92;25.15;;;2.80;99.90;;;;;;5084860;28;20044;-70
2022/03/21 05:58:18;;;;;;;63.25;25.25;;;2.80;99.90;;;;;;5066925;28;20397;-70
2022/03/21 06:00:44;;;;;;;61.83;25.95;;;2.80;99.90;;;;;;5074294;28;20047;-70
2022/03/21 06:03:10;;;;;;;55.35;24.17;;;2.80;99.90;;;;;;5076119;28;20043;-71
2022/03/21 06:05:36;;;;;;;56.70;24.50;;;2.80;99.90;;;;;;5078965;28;20152;-70
2022/03/21 06:08:05;;;;;;;89.38;27.48;;;2.80;99.90;;;;;;5071669;28;20040;-71
2022/03/21 06:10:31;;;;;;;75.47;30.02;;;2.80;99.90;;;;;;5072692;28;20079;-70
2022/03/21 06:12:57;;;;;;;78.55;29.25;;;2.80;99.90;;;;;;5056884;28;20056;-70
2022/03/21 06:15:23;;;;;;;80.55;29.15;;;2.80;99.90;;;;;;5090287;28;20040;-70
2022/03/21 06:17:49;;;;;;;94.38;31.85;;;2.90;99.90;;;;;;5077404;28;20043;-70
2022/03/21 06:20:17;;;;;;;73.75;29.08;;;3.00;99.90;;;;;;5054679;28;20470;-70
2022/03/21 06:22:43;;;;;;;76.30;29.80;;;3.10;99.90;;;;;;5067947;28;20395;-70
2022/03/21 06:25:10;;;;;;;91.45;29.88;;;3.20;99.90;;;;;;5091419;28;20425;-71
2022/03/21 06:27:38;;;;;;;77.63;30.00;;;3.30;99.90;;;;;;5052449;28;20036;-70
2022/03/21 06:30:05;;;;;;;62.13;26.05;;;3.30;99.90;;;;;;5089875;28;20524;-71
2022/03/21 06:32:31;;;;;;;70.38;28.63;;;3.30;99.90;;;;;;5087601;28;20040;-70
2022/03/21 06:34:57;;;;;;;71.13;28.00;;;3.40;99.90;;;;;;5094037;28;20439;-71
2022/03/21 06:37:23;;;;;;;85.40;30.63;;;3.50;99.90;;;;;;5069002;28;20497;-71
2022/03/21 06:39:49;;;;;;;63.63;27.83;;;3.60;99.90;;;;;;5052964;28;20469;-71
2022/03/21 06:42:15;;;;;;;57.38;26.20;;;3.70;99.90;;;;;;5070630;28;20130;-70
2022/03/21 06:44:42;;;;;;;56.33;26.15;;;3.80;99.90;;;;;;5090938;28;20040;-70
2022/03/21 06:47:08;;;;;;;71.97;28.55;;;3.80;99.90;;;;;;5056218;28;20040;-71
2022/03/21 06:49:35;;;;;;;76.75;30.48;;;4.00;99.90;;;;;;5072593;28;20083;-70
2022/03/21 06:52:02;;;;;;;84.82;31.25;;;4.10;99.90;;;;;;5104203;28;20040;-71
2022/03/21 06:54:32;;;;;;;69.75;28.30;;;4.20;99.90;;;;;;5093462;28;20115;-70
2022/03/21 06:56:58;;;;;;;64.72;28.00;;;4.90;99.90;;;;;;5070872;28;20090;-70
2022/03/21 06:59:24;;;;;;;64.55;26.90;;;4.50;99.90;;;;;;5084249;28;20032;-70
2022/03/21 07:01:50;;;;;;;67.32;27.92;;;4.60;99.90;;;;;;5072863;28;20052;-70
2022/03/21 07:04:16;;;;;;;68.28;27.58;;;4.80;99.90;;;;;;5056112;28;20136;-70
2022/03/21 07:06:42;;;;;;;65.95;26.15;;;5.00;99.90;;;;;;5055781;28;20048;-70
2022/03/21 07:09:08;;;;;;;53.03;25.05;;;5.30;99.90;;;;;;5072317;28;20155;-71
2022/03/21 07:11:35;;;;;;;56.35;25.10;;;5.50;99.90;;;;;;5068324;28;20123;-71
2022/03/21 07:14:02;;;;;;;50.67;24.30;;;5.70;99.90;;;;;;5053361;28;20244;-70
2022/03/21 07:16:27;;;;;;;58.47;24.95;;;5.90;99.90;;;;;;5071097;28;20040;-70
2022/03/21 07:18:53;;;;;;;53.90;25.48;;;6.10;99.90;;;;;;5060654;28;20085;-71
2022/03/21 07:21:19;;;;;;;52.22;23.88;;;6.20;99.90;;;;;;5079880;28;20083;-71
2022/03/21 07:23:46;;;;;;;47.08;22.13;;;6.30;99.90;;;;;;5051329;28;20496;-70
2022/03/21 07:26:13;;;;;;;45.15;21.00;;;6.40;99.90;;;;;;5074862;28;20055;-69
2022/03/21 07:28:39;;;;;;;45.72;22.60;;;6.60;99.90;;;;;;5100501;28;20055;-68
2022/03/21 07:31:09;;;;;;;41.17;20.98;;;6.70;99.90;;;;;;5061836;28;20051;-70
2022/03/21 07:33:39;;;;;;;41.65;21.52;;;6.90;99.90;;;;;;5059504;28;20060;-70
2022/03/21 07:36:06;;;;;;;37.92;17.92;;;7.10;99.90;;;;;;5076770;28;20071;-70
2022/03/21 07:38:32;;;;;;;35.35;17.75;;;7.20;99.90;;;;;;5090676;28;20481;-70
2022/03/21 07:40:59;;;;;;;36.38;18.85;;;7.20;99.90;;;;;;5047318;28;20417;-69
2022/03/21 07:43:25;;;;;;;37.38;18.70;;;7.30;99.90;;;;;;5076847;28;20404;-69
2022/03/21 07:48:36;;;;;;;34.90;16.98;;;7.60;99.90;;;;;;5075997;28;20040;-71
2022/03/21 07:51:04;;;;;;;38.08;18.10;;;7.70;99.90;;;;;;5032409;28;20052;-70
2022/03/21 07:53:33;;;;;;;36.35;19.10;;;7.80;99.90;;;;;;5049907;28;20036;-71
2022/03/21 07:56:00;;;;;;;37.50;18.25;;;8.00;99.90;;;;;;5100796;28;20484;-70
2022/03/21 07:58:31;;;;;;;34.35;17.35;;;8.00;99.90;;;;;;5094123;28;20054;-70
2022/03/21 08:00:58;;;;;;;30.77;17.10;;;8.20;99.90;;;;;;5060175;28;20036;-70
2022/03/21 08:03:24;;;;;;;31.60;16.58;;;8.30;99.90;;;;;;5079748;28;20044;-70
2022/03/21 08:05:50;;;;;;;31.02;16.75;;;8.30;99.90;;;;;;5067491;28;20502;-70
2022/03/21 08:08:16;;;;;;;32.28;17.42;;;8.40;99.90;;;;;;5060982;28;20476;-70
2022/03/21 08:10:43;;;;;;;31.00;16.23;;;8.40;99.90;;;;;;5068446;28;20135;-70
2022/03/21 08:13:09;;;;;;;31.48;16.90;;;8.50;99.90;;;;;;5071084;28;20492;-71
2022/03/21 08:15:38;;;;;;;31.45;17.52;;;8.60;99.90;;;;;;5050085;28;20104;-71
2022/03/21 08:18:05;;;;;;;31.63;17.85;;;8.70;99.90;;;;;;5069908;28;20106;-71
2022/03/21 08:20:38;;;;;;;34.35;16.88;;;8.80;99.90;;;;;;5075216;28;20044;-70
2022/03/21 08:23:09;;;;;;;34.97;17.25;;;8.80;99.90;;;;;;5087947;28;20037;-70
2022/03/21 08:25:36;;;;;;;;;;;9.00;99.90;;;;;;5075705;28;20040;-70
2022/03/21 08:28:03;;;;;;;30.35;15.73;;;9.10;99.90;;;;;;5076158;28;19919;-69
2022/03/21 08:30:32;;;;;;;29.15;15.27;;;9.20;99.90;;;;;;5073096;28;20108;-70
2022/03/21 08:32:59;;;;;;;32.72;15.93;;;9.30;99.90;;;;;;5029837;28;20349;-70
2022/03/21 08:35:25;;;;;;;30.13;15.32;;;9.40;99.90;;;;;;5075665;28;20051;-69
2022/03/21 08:37:51;;;;;;;31.38;15.50;;;9.40;99.90;;;;;;5078939;28;20040;-70
2022/03/21 08:40:17;;;;;;;30.92;15.88;;;9.50;99.90;;;;;;5084254;28;20427;-70
2022/03/21 08:42:43;;;;;;;29.42;15.30;;;9.60;99.90;;;;;;5046776;28;20456;-70
2022/03/21 08:45:10;;;;;;;29.42;16.73;;;9.80;99.90;;;;;;5066293;28;20036;-71
2022/03/21 08:47:37;;;;;;;28.92;16.42;;;9.90;99.90;;;;;;5073412;28;20071;-70
2022/03/21 08:50:04;;;;;;;27.42;15.63;;;10.00;99.90;;;;;;5057501;28;20041;-70
2022/03/21 08:52:30;;;;;;;28.25;15.57;;;10.10;99.90;;;;;;5090735;28;20036;-69
2022/03/21 08:54:57;;;;;;;30.67;16.73;;;10.10;99.90;;;;;;5093844;28;20051;-70
2022/03/21 08:57:22;;;;;;;28.58;16.13;;;10.30;99.90;;;;;;5073957;28;20348;-70
2022/03/21 08:59:48;;;;;;;30.95;16.45;;;10.40;99.90;;;;;;5093872;28;20472;-70
2022/03/21 09:02:17;;;;;;;28.05;15.88;;;10.40;99.90;;;;;;5078315;28;20048;-69
2022/03/21 09:04:44;;;;;;;29.33;16.35;;;10.50;99.90;;;;;;5075454;28;20086;-70
2022/03/21 09:07:09;;;;;;;30.05;16.85;;;10.60;99.90;;;;;;5089883;28;20036;-70
2022/03/21 09:09:36;;;;;;;26.70;16.23;;;10.70;99.90;;;;;;5064945;28;20050;-70
2022/03/21 09:12:02;;;;;;;30.23;16.25;;;10.80;99.90;;;;;;5052796;28;20555;-70
2022/03/21 09:14:28;;;;;;;29.83;16.92;;;10.90;99.90;;;;;;5072598;28;20044;-70
2022/03/21 09:16:56;;;;;;;28.35;16.63;;;11.00;99.90;;;;;;5040545;28;20044;-69
2022/03/21 09:19:23;;;;;;;29.88;17.50;;;11.00;99.90;;;;;;5059138;28;20387;-70
2022/03/21 09:21:50;;;;;;;28.58;16.73;;;11.10;99.90;;;;;;5057776;28;20082;-69
2022/03/21 09:24:16;;;;;;;34.33;18.00;;;11.10;99.90;;;;;;5057268;28;20056;-79
2022/03/21 09:26:42;;;;;;;30.17;16.98;;;11.20;99.90;;;;;;5074189;28;20079;-84
2022/03/21 09:29:09;;;;;;;28.75;16.45;;;11.40;99.90;;;;;;5071498;28;20052;-72
2022/03/21 09:31:39;;;;;;;36.47;17.25;;;11.60;99.90;;;;;;5083593;28;20044;-71
2022/03/21 09:34:07;;;;;;;28.63;16.97;;;11.70;99.90;;;;;;5075427;28;20437;-72
2022/03/21 09:36:33;;;;;;;30.70;17.23;;;11.80;99.90;;;;;;5052573;28;20048;-74
2022/03/21 09:38:58;;;;;;;31.50;17.45;;;11.80;99.90;;;;;;5074798;28;20384;-72
2022/03/21 09:41:29;;;;;;;30.80;17.13;;;11.90;99.90;;;;;;5091518;28;20039;-71
2022/03/21 09:44:00;;;;;;;29.23;17.55;;;11.90;99.90;;;;;;5056600;28;20037;-71
2022/03/21 09:46:26;;;;;;;30.17;16.83;;;12.00;99.90;;;;;;5064004;28;20131;-71
2022/03/21 09:48:54;;;;;;;30.90;16.98;;;12.10;99.90;;;;;;5066988;28;20032;-71
2022/03/21 09:51:22;;;;;;;29.02;17.33;;;12.30;99.90;;;;;;5057723;28;20076;-71
2022/03/21 09:53:49;;;;;;;29.10;16.15;;;12.40;99.90;;;;;;5056617;28;20048;-71
2022/03/21 09:56:16;;;;;;;31.55;17.08;;;12.40;99.90;;;;;;5051157;28;20044;-71
2022/03/21 09:58:43;;;;;;;31.35;17.20;;;12.70;99.90;;;;;;5055975;28;20047;-72
2022/03/21 10:01:11;;;;;;;28.90;16.75;;;12.70;99.90;;;;;;5091655;28;20040;-71
2022/03/21 10:03:38;;;;;;;27.40;16.75;;;12.70;99.90;;;;;;5076048;28;20117;-71
2022/03/21 10:06:33;;;;;;;28.33;16.88;;;12.80;99.90;;;;;;5091859;28;20043;-70
2022/03/21 10:09:10;;;;;;;29.95;16.30;;;12.90;99.90;;;;;;5053336;28;20361;-72
2022/03/21 10:11:39;;;;;;;26.02;16.60;;;13.00;99.90;;;;;;5087679;28;20051;-71
2022/03/21 10:14:25;;;;;;;27.10;17.17;;;13.10;99.90;;;;;;5093078;28;20133;-72
2022/03/21 10:16:56;;;;;;;28.65;16.33;;;13.30;99.90;;;;;;5047715;28;20071;-70
2022/03/21 10:19:23;;;;;;;31.60;17.23;;;13.50;99.90;;;;;;5054536;28;20044;-71
2022/03/21 10:22:01;;;;;;;27.45;17.50;;;13.40;99.90;;;;;;5075024;28;20090;-73
2022/03/21 10:24:27;;;;;;;29.98;17.67;;;13.50;99.90;;;;;;5075570;28;20040;-72
2022/03/21 10:26:53;;;;;;;29.80;17.27;;;13.70;99.90;;;;;;5105166;28;20444;-75
2022/03/21 10:29:20;;;;;;;29.60;17.88;;;13.70;99.90;;;;;;5089027;28;20039;-75
2022/03/21 10:31:52;;;;;;;31.52;18.17;;;13.90;99.90;;;;;;5047815;28;20357;-75
2022/03/21 10:34:23;;;;;;;32.17;18.33;;;14.00;99.90;;;;;;5069881;28;20052;-75
2022/03/21 10:37:08;;;;;;;30.90;17.17;;;14.10;99.90;;;;;;5069985;28;20036;-75
2022/03/21 10:39:49;;;;;;;33.67;18.45;;;14.20;99.90;;;;;;5061749;28;20553;-75
2022/03/21 10:42:15;;;;;;;28.55;16.70;;;14.30;99.90;;;;;;5057574;28;20118;-74
2022/03/21 10:44:41;;;;;;;34.00;18.30;;;14.30;99.90;;;;;;5094120;28;20544;-74
2022/03/21 10:47:09;;;;;;;34.20;21.13;;;14.50;99.90;;;;;;5087468;28;20048;-75
2022/03/21 10:49:43;;;;;;;35.03;20.80;;;14.50;99.90;;;;;;5073768;28;20051;-75
2022/03/21 10:52:16;;;;;;;32.33;20.77;;;14.50;99.90;;;;;;5090006;28;20037;-75
2022/03/21 10:54:50;;;;;;;37.40;22.60;;;14.60;99.90;;;;;;5071792;28;20044;-76
2022/03/21 10:57:34;;;;;;;37.10;21.45;;;14.60;99.90;;;;;;5068334;28;20041;-77
2022/03/21 11:00:18;;;;;;;36.17;20.88;;;14.70;99.90;;;;;;5054065;28;20127;-76
2022/03/21 11:03:03;;;;;;;35.53;20.90;;;14.60;99.90;;;;;;5072303;28;20128;-75
2022/03/21 11:05:32;;;;;;;34.20;20.73;;;14.70;99.90;;;;;;5053367;28;20037;-79
2022/03/21 11:07:58;;;;;;;40.50;21.33;;;14.70;99.90;;;;;;5067737;28;20483;-79
2022/03/21 11:10:26;;;;;;;32.85;20.63;;;14.80;99.90;;;;;;5090383;28;20056;-75
2022/03/21 11:12:54;;;;;;;32.40;19.48;;;14.80;99.90;;;;;;5075427;28;20126;-76
2022/03/21 11:15:20;;;;;;;30.60;20.02;;;15.10;99.90;;;;;;5057752;28;20070;-76
2022/03/21 11:17:47;;;;;;;33.70;20.52;;;15.10;99.90;;;;;;5081118;28;20074;-78
2022/03/21 11:20:14;;;;;;;32.90;19.95;;;15.20;99.90;;;;;;5073811;28;20032;-77
2022/03/21 11:22:41;;;;;;;33.53;20.77;;;15.20;99.90;;;;;;5046541;28;20051;-75
2022/03/21 11:25:15;;;;;;;35.10;20.52;;;15.30;99.90;;;;;;5071170;28;20561;-75
2022/03/21 11:28:08;;;;;;;34.08;19.33;;;15.20;99.90;;;;;;5050284;28;20036;-74
2022/03/21 11:30:49;;;;;;;30.95;19.08;;;15.50;99.90;;;;;;5075070;28;20275;-75
2022/03/21 11:33:22;;;;;;;33.42;19.83;;;15.60;99.90;;;;;;5078113;28;20040;-75
2022/03/21 11:36:00;;;;;;;32.25;19.10;;;15.60;99.90;;;;;;5076533;28;20123;-75
2022/03/21 11:38:28;;;;;;;30.05;18.95;;;15.60;99.40;;;;;;5078109;28;20047;-74
2022/03/21 11:41:18;;;;;;;31.52;18.98;;;15.70;99.90;;;;;;5059841;28;20043;-74
2022/03/21 11:43:46;;;;;;;33.20;18.90;;;16.00;99.90;;;;;;5074092;28;20043;-75
2022/03/21 11:46:29;;;;;;;32.42;19.35;;;16.20;99.90;;;;;;5059315;28;20050;-82
2022/03/21 11:48:59;;;;;;;27.75;17.88;;;16.20;94.00;;;;;;5059220;28;20043;-83
2022/03/21 11:51:29;;;;;;;30.00;18.48;;;16.20;99.90;;;;;;5073847;28;20050;-75
2022/03/21 11:53:56;;;;;;;29.02;17.88;;;16.50;99.90;;;;;;5068075;28;20115;-75
2022/03/21 11:56:41;;;;;;;31.98;19.23;;;16.40;99.90;;;;;;5075458;28;20426;-74
2022/03/21 11:59:33;;;;;;;31.23;18.92;;;16.70;85.80;;;;;;5065931;28;20039;-75
2022/03/21 12:02:08;;;;;;;31.10;18.90;;;16.70;87.60;;;;;;5091002;28;20032;-75
2022/03/21 12:04:35;;;;;;;26.83;17.98;;;17.10;92.60;;;;;;5053002;28;20119;-75
2022/03/21 12:07:20;;;;;;;30.67;19.00;;;17.30;99.90;;;;;;5051618;28;20492;-75
2022/03/21 12:09:50;;;;;;;29.92;20.30;;;17.30;80.10;;;;;;5062231;28;20044;-75
2022/03/21 12:12:20;;;;;;;32.35;19.50;;;17.60;91.10;;;;;;5096516;28;20040;-74
2022/03/21 12:14:58;;;;;;;30.95;18.60;;;17.90;89.60;;;;;;5058481;28;20035;-73
2022/03/21 12:17:25;;;;;;;29.42;18.58;;;18.20;91.00;;;;;;5053945;28;20075;-73
2022/03/21 12:22:28;;;;;;;31.90;18.35;;;18.50;85.10;;;;;;5092842;28;20058;-72
2022/03/21 12:25:05;;;;;;;29.55;18.45;;;18.80;79.20;;;;;;5074990;28;20132;-74
2022/03/21 12:27:42;;;;;;;33.85;18.70;;;18.90;76.80;;;;;;5076071;28;20044;-75
2022/03/21 12:30:40;;;;;;;29.90;18.70;;;19.00;78.70;;;;;;5093818;28;20118;-75
2022/03/21 12:33:14;;;;;;;24.65;18.10;;;19.40;77.00;;;;;;5071617;28;20032;-74
2022/03/21 12:35:44;;;;;;;28.08;18.63;;;19.40;72.00;;;;;;5044405;28;20408;-74
2022/03/21 12:38:11;;;;;;;27.27;17.67;;;19.60;75.00;;;;;;5093142;28;20083;-74
2022/03/21 12:40:46;;;;;;;28.65;19.02;;;19.80;73.80;;;;;;5068735;28;20051;-75
2022/03/21 12:43:14;;;;;;;25.48;19.00;;;19.60;67.40;;;;;;5073094;28;20040;-75
2022/03/21 12:45:44;;;;;;;24.77;18.15;;;20.00;65.20;;;;;;5087509;28;20503;-74
2022/03/21 12:48:16;;;;;;;24.65;18.40;;;20.00;66.90;;;;;;5096192;28;20495;-73
2022/03/21 12:50:42;;;;;;;25.35;17.98;;;19.80;66.60;;;;;;5076697;28;20048;-74
2022/03/21 12:53:10;;;;;;;27.83;19.35;;;20.20;67.30;;;;;;5040868;28;20040;-74
2022/03/21 12:55:37;;;;;;;24.70;18.27;;;20.20;65.90;;;;;;5082081;28;20044;-74
2022/03/21 12:58:06;;;;;;;24.30;18.38;;;20.70;65.30;;;;;;5047978;28;20496;-74
2022/03/21 13:00:34;;;;;;;27.55;18.73;;;21.10;64.50;;;;;;5058919;28;20519;-74